Time;durP1;ratioP1;P1;durP2;ratioP2;P2;SDS_P1;SDS_P2;PMS_P1;PMS_P2;Temp;Humidity;BMP_temperature;BMP_pressure;BME280_temperature;BME280_humidity;BME280_pressure;Samples;Min_cycle;Max_cycle;Signal;HPM_P1;HPM_P2
2021/08/19 00:02:01;;;;;;;4.68;3.78;;;;;;;17.33;100.00;100351.31;5067591;28;20635;-73
2021/08/19 00:04:30;;;;;;;4.22;3.40;;;;;;;17.31;100.00;100344.53;5015169;28;20246;-75
2021/08/19 00:06:58;;;;;;;3.90;3.50;;;;;;;17.33;100.00;100352.47;5014522;28;20644;-73
2021/08/19 00:09:24;;;;;;;4.70;3.45;;;;;;;17.20;100.00;100347.94;5036673;28;20190;-76
2021/08/19 00:11:49;;;;;;;4.10;3.63;;;;;;;17.21;100.00;100341.31;5052194;28;20269;-73
2021/08/19 00:14:17;;;;;;;4.10;3.70;;;;;;;17.40;100.00;100346.16;5050734;28;20222;-74
2021/08/19 00:16:47;;;;;;;5.18;3.83;;;;;;;17.47;100.00;100338.22;5034720;28;20211;-73
2021/08/19 00:19:13;;;;;;;4.78;4.00;;;;;;;17.39;100.00;100339.03;5050510;28;20249;-76
2021/08/19 00:21:38;;;;;;;4.47;3.70;;;;;;;17.32;100.00;100335.16;5034264;28;20815;-73
2021/08/19 00:24:04;;;;;;;4.28;3.88;;;;;;;17.18;100.00;100341.94;5034580;28;20187;-73
2021/08/19 00:26:38;;;;;;;4.18;3.78;;;;;;;17.18;100.00;100341.94;5029279;28;20215;-78
2021/08/19 00:29:06;;;;;;;6.57;4.00;;;;;;;17.21;100.00;100341.31;5051296;28;20239;-73
2021/08/19 00:31:31;;;;;;;4.70;3.85;;;;;;;17.33;100.00;100340.31;5014273;28;20227;-75
2021/08/19 00:33:59;;;;;;;4.38;3.97;;;;;;;17.24;100.00;100341.47;5014853;28;20227;-73
2021/08/19 00:36:26;;;;;;;5.55;4.13;;;;;;;17.31;100.00;100338.22;5017193;28;20592;-73
2021/08/19 00:38:54;;;;;;;4.97;4.43;;;;;;;17.36;100.00;100342.44;5034024;28;20229;-74
2021/08/19 00:41:20;;;;;;;5.70;4.47;;;;;;;17.23;100.00;100341.78;5013928;28;20243;-73
2021/08/19 00:43:46;;;;;;;4.80;4.30;;;;;;;17.19;100.00;100340.81;5047270;28;20216;-74
2021/08/19 00:46:26;;;;;;;5.18;4.68;;;;;;;17.22;100.00;100335.50;5045188;28;20227;-74
2021/08/19 00:49:01;;;;;;;4.63;4.22;;;;;;;17.18;100.00;100334.53;5033672;28;20195;-74
2021/08/19 00:51:37;;;;;;;6.47;4.97;;;;;;;17.12;100.00;100335.78;5029700;28;20611;-73
2021/08/19 00:54:10;;;;;;;5.18;4.43;;;;;;;17.15;100.00;100328.84;5014140;28;20210;-74
2021/08/19 00:56:41;;;;;;;6.40;4.70;;;;;;;16.90;100.00;100348.81;5017699;28;20219;-75
2021/08/19 00:59:11;;;;;;;7.28;4.90;;;;;;;16.97;100.00;100347.22;5051533;28;20720;-74
2021/08/19 01:01:39;;;;;;;6.60;4.32;;;;;;;16.96;100.00;100342.88;5066879;28;20318;-75
2021/08/19 01:04:09;;;;;;;6.15;4.82;;;;;;;16.88;100.00;100340.09;5050782;28;20199;-75
2021/08/19 01:06:35;;;;;;;5.70;5.10;;;;;;;16.90;100.00;100343.34;5013322;28;20617;-73
2021/08/19 01:09:07;;;;;;;6.80;5.18;;;;;;;17.08;100.00;100345.78;5046305;28;20183;-74
2021/08/19 01:11:35;;;;;;;5.63;5.13;;;;;;;17.04;100.00;100344.81;5016454;28;20247;-73
2021/08/19 01:14:02;;;;;;;6.95;5.03;;;;;;;17.01;100.00;100344.66;5066581;28;20218;-74
2021/08/19 01:16:28;;;;;;;6.10;5.40;;;;;;;17.10;100.00;100348.22;5013417;28;20212;-73
2021/08/19 01:18:56;;;;;;;5.82;5.32;;;;;;;17.01;100.00;100352.88;5013323;28;20192;-73
2021/08/19 01:21:24;;;;;;;5.95;5.13;;;;;;;16.98;100.00;100346.09;5049539;28;20219;-73
2021/08/19 01:23:50;;;;;;;5.93;5.43;;;;;;;17.00;100.00;100348.53;5033477;28;20669;-74
2021/08/19 01:26:21;;;;;;;5.50;5.00;;;;;;;17.07;100.00;100340.63;5033123;28;20231;-74
2021/08/19 01:28:47;;;;;;;5.95;5.40;;;;;;;17.05;100.00;100345.63;5033382;28;20198;-74
2021/08/19 01:31:23;;;;;;;6.68;4.93;;;;;;;16.84;100.00;100344.63;5032722;28;20223;-75
2021/08/19 01:33:51;;;;;;;5.82;5.32;;;;;;;16.82;100.00;100349.63;5033537;28;20251;-73
2021/08/19 01:36:17;;;;;;;7.10;5.82;;;;;;;16.80;100.00;100357.38;5029480;28;20319;-73
2021/08/19 01:38:43;;;;;;;6.72;5.70;;;;;;;16.71;100.00;100351.06;5013101;28;20184;-76
2021/08/19 01:41:08;;;;;;;5.97;5.47;;;;;;;16.77;100.00;100348.97;5033164;28;20588;-74
2021/08/19 01:43:35;;;;;;;7.30;5.68;;;;;;;16.75;100.00;100348.50;5033132;28;20196;-74
2021/08/19 01:46:03;;;;;;;6.63;5.90;;;;;;;16.81;100.00;100352.69;5013114;28;20795;-73
2021/08/19 01:48:33;;;;;;;6.25;5.65;;;;;;;16.79;100.00;100353.00;5030093;28;20682;-75
2021/08/19 01:50:59;;;;;;;7.10;5.75;;;;;;;16.65;100.00;100346.84;5022672;28;20223;-74
2021/08/19 01:53:24;;;;;;;6.33;5.73;;;;;;;16.71;100.00;100345.56;5036451;28;20198;-77
2021/08/19 01:55:54;;;;;;;7.55;5.53;;;;;;;16.79;100.00;100350.25;5034190;28;20276;-74
2021/08/19 01:58:20;;;;;;;6.53;5.75;;;;;;;16.77;100.00;100351.72;5049557;28;20191;-74
2021/08/19 02:00:50;;;;;;;6.93;5.43;;;;;;;16.69;100.00;100342.34;5016291;28;20238;-73
2021/08/19 02:03:18;;;;;;;5.88;5.32;;;;;;;16.71;100.00;100348.31;5032668;28;20298;-75
2021/08/19 02:05:48;;;;;;;6.70;5.55;;;;;;;16.66;100.00;100345.72;5015770;28;20243;-73
2021/08/19 02:08:16;;;;;;;6.30;5.70;;;;;;;16.79;100.00;100350.25;5018973;28;20264;-73
2021/08/19 02:10:41;;;;;;;6.20;5.60;;;;;;;16.73;100.00;100348.00;5036510;28;20600;-73
2021/08/19 02:13:10;;;;;;;7.03;5.78;;;;;;;16.78;100.00;100345.91;5036132;28;20219;-73
2021/08/19 02:15:35;;;;;;;6.35;5.70;;;;;;;16.77;100.00;100344.28;5052796;28;20254;-74
2021/08/19 02:18:01;;;;;;;6.43;5.35;;;;;;;16.67;100.00;100341.06;5016580;28;20212;-74
2021/08/19 02:20:27;;;;;;;6.35;5.75;;;;;;;16.70;100.00;100343.97;5016236;28;20243;-74
2021/08/19 02:22:55;;;;;;;7.13;5.50;;;;;;;16.71;100.00;100340.09;5031866;28;20206;-74
2021/08/19 02:25:25;;;;;;;6.82;5.72;;;;;;;16.65;100.00;100333.16;5035827;28;20676;-72
2021/08/19 02:27:55;;;;;;;7.22;5.80;;;;;;;16.67;100.00;100333.63;5032841;28;20212;-72
2021/08/19 02:30:28;;;;;;;7.38;5.88;;;;;;;16.63;100.00;100338.16;5049074;28;20228;-73
2021/08/19 02:32:56;;;;;;;6.97;6.13;;;;;;;16.59;100.00;100330.84;5020596;28;20286;-74
2021/08/19 02:35:25;;;;;;;6.40;5.80;;;;;;;16.60;100.00;100325.06;5035783;28;20182;-73
2021/08/19 02:37:51;;;;;;;6.75;6.00;;;;;;;16.59;100.00;100323.47;5015948;28;20187;-73
2021/08/19 02:40:17;;;;;;;6.32;5.70;;;;;;;16.70;100.00;100333.00;5015383;28;20231;-74
2021/08/19 02:42:44;;;;;;;6.65;6.05;;;;;;;16.59;100.00;100315.22;5019825;28;20204;-73
2021/08/19 02:45:13;;;;;;;7.43;5.85;;;;;;;16.69;100.00;100330.56;5035803;28;20180;-73
2021/08/19 02:47:41;;;;;;;6.80;6.20;;;;;;;16.70;100.00;100324.78;5003771;28;20530;-73
2021/08/19 02:50:07;;;;;;;7.13;5.90;;;;;;;16.71;100.00;100329.13;5051638;28;20239;-74
2021/08/19 02:52:33;;;;;;;7.85;6.53;;;;;;;16.71;100.00;100326.38;5063538;28;20688;-73
2021/08/19 02:55:01;;;;;;;7.63;6.30;;;;;;;16.77;100.00;100322.34;5036138;28;20184;-71
2021/08/19 02:57:26;;;;;;;7.13;6.40;;;;;;;16.71;100.00;100325.56;5051831;28;20743;-74
2021/08/19 02:59:54;;;;;;;7.65;6.53;;;;;;;16.81;100.00;100317.84;5019277;28;20621;-72
2021/08/19 03:02:27;;;;;;;8.30;7.43;;;;;;;16.82;100.00;100319.44;5036009;28;20220;-73
2021/08/19 03:04:52;;;;;;;8.40;7.00;;;;;;;16.86;100.00;100325.09;5019567;28;20196;-72
2021/08/19 03:07:23;;;;;;;8.52;7.57;;;;;;;16.89;100.00;100328.03;5052642;28;20265;-71
2021/08/19 03:09:51;;;;;;;8.98;7.70;;;;;;;16.87;100.00;100319.31;5036353;28;20207;-73
2021/08/19 03:12:19;;;;;;;7.78;7.07;;;;;;;16.84;100.00;100310.91;5031602;28;20597;-73
2021/08/19 03:14:47;;;;;;;9.00;7.78;;;;;;;16.91;100.00;100312.03;5015766;28;20192;-72
2021/08/19 03:17:17;;;;;;;9.05;7.90;;;;;;;16.69;100.00;100316.84;5017572;28;20220;-72
2021/08/19 03:19:43;;;;;;;9.82;8.07;;;;;;;16.84;100.00;100311.72;5050715;28;20275;-72
2021/08/19 03:22:09;;;;;;;9.38;8.45;;;;;;;16.89;100.00;100306.06;5052853;28;20600;-72
2021/08/19 03:24:36;;;;;;;9.23;8.30;;;;;;;16.84;100.00;100308.97;5019565;28;20271;-74
2021/08/19 03:27:02;;;;;;;9.82;8.40;;;;;;;16.86;100.00;100309.44;5034695;28;20219;-72
2021/08/19 03:29:32;;;;;;;10.38;8.18;;;;;;;16.80;100.00;100309.94;5047844;28;20188;-73
2021/08/19 03:32:00;;;;;;;9.57;8.43;;;;;;;16.91;100.00;100320.28;5031239;28;20251;-73
2021/08/19 03:34:25;;;;;;;9.70;8.57;;;;;;;17.00;100.00;100315.59;5033605;28;20175;-72
2021/08/19 03:36:55;;;;;;;9.88;8.68;;;;;;;16.70;100.00;100307.47;5034559;28;20211;-73
2021/08/19 03:39:23;;;;;;;10.88;8.52;;;;;;;16.79;100.00;100314.59;5014744;28;20678;-72
2021/08/19 03:41:51;;;;;;;10.10;8.90;;;;;;;17.02;100.00;100307.84;5014855;28;20243;-72
2021/08/19 03:44:16;;;;;;;10.68;9.57;;;;;;;16.96;100.00;100309.16;5047698;28;20207;-73
2021/08/19 03:46:49;;;;;;;9.98;8.55;;;;;;;16.92;100.00;100307.34;5018372;28;20712;-71
2021/08/19 03:49:17;;;;;;;9.75;8.70;;;;;;;16.98;100.00;100301.41;5031578;28;20196;-74
2021/08/19 03:51:45;;;;;;;9.73;8.48;;;;;;;16.92;100.00;100312.84;5051892;28;20581;-71
2021/08/19 03:54:13;;;;;;;13.15;9.57;;;;;;;17.01;100.00;100311.72;5044132;28;20600;-72
2021/08/19 03:56:41;;;;;;;10.00;8.95;;;;;;;16.84;100.00;100295.25;5062891;28;20692;-73
2021/08/19 03:59:09;;;;;;;10.20;9.20;;;;;;;16.67;100.00;100317.16;5033559;28;20247;-74
2021/08/19 04:01:35;;;;;;;10.77;9.43;;;;;;;16.86;100.00;100314.13;5021903;28;20932;-72
2021/08/19 04:04:01;;;;;;;11.02;9.45;;;;;;;16.82;100.00;100308.47;5035499;28;20211;-73
2021/08/19 04:06:28;;;;;;;11.55;9.50;;;;;;;16.80;100.00;100312.69;5018076;28;20228;-73
2021/08/19 04:08:56;;;;;;;11.48;9.50;;;;;;;16.67;100.00;100319.91;5031041;28;20195;-73
2021/08/19 04:11:22;;;;;;;10.25;9.02;;;;;;;16.78;100.00;100321.22;5030211;28;20224;-73
2021/08/19 04:13:49;;;;;;;10.38;9.27;;;;;;;16.93;100.00;100329.00;5039058;28;20226;-74
2021/08/19 04:16:15;;;;;;;10.25;9.15;;;;;;;16.92;100.00;100324.63;5050994;28;20310;-73
2021/08/19 04:18:40;;;;;;;11.13;9.30;;;;;;;16.84;100.00;100322.69;5014097;28;20184;-74
2021/08/19 04:21:06;;;;;;;11.20;8.88;;;;;;;16.81;100.00;100328.84;5014050;28;20220;-77
2021/08/19 04:23:32;;;;;;;10.00;8.93;;;;;;;16.86;100.00;100336.88;5035978;28;20711;-73
2021/08/19 04:25:59;;;;;;;10.13;8.65;;;;;;;16.79;100.00;100331.06;5018002;28;20219;-73
2021/08/19 04:28:27;;;;;;;10.25;9.10;;;;;;;16.76;100.00;100331.72;5016793;28;20676;-74
2021/08/19 04:30:55;;;;;;;10.02;9.00;;;;;;;16.76;100.00;100339.16;5016921;28;20235;-72
2021/08/19 04:33:26;;;;;;;10.73;8.90;;;;;;;16.85;100.00;100335.28;5034300;28;20257;-73
2021/08/19 04:35:52;;;;;;;11.20;8.68;;;;;;;16.67;100.00;100333.63;5034420;28;20234;-74
2021/08/19 04:38:20;;;;;;;9.30;8.30;;;;;;;16.72;100.00;100338.97;5018043;28;20184;-73
2021/08/19 04:40:48;;;;;;;11.40;8.77;;;;;;;16.75;100.00;100352.03;5051435;28;20277;-75
2021/08/19 04:43:14;;;;;;;11.45;8.98;;;;;;;16.89;100.00;100352.72;5050977;28;20203;-73
2021/08/19 04:45:39;;;;;;;9.68;8.50;;;;;;;16.87;100.00;100349.50;5050019;28;20276;-72
2021/08/19 04:48:05;;;;;;;9.20;8.18;;;;;;;16.84;100.00;100352.06;5033333;28;20245;-73
2021/08/19 04:50:35;;;;;;;11.52;9.23;;;;;;;16.95;100.00;100354.97;5016946;28;20238;-76
2021/08/19 04:53:00;;;;;;;9.82;8.80;;;;;;;16.96;100.00;100355.81;5018737;28;20195;-75
2021/08/19 04:55:28;;;;;;;10.88;9.20;;;;;;;16.96;100.00;100358.53;5013866;28;20220;-72
2021/08/19 04:57:56;;;;;;;10.18;9.13;;;;;;;16.97;100.00;100354.66;4997641;28;20250;-72
2021/08/19 05:00:21;;;;;;;12.75;9.63;;;;;;;16.97;100.00;100360.94;5045522;28;20180;-72
2021/08/19 05:02:49;;;;;;;10.52;9.45;;;;;;;16.96;100.00;100353.06;5034159;28;20215;-73
2021/08/19 05:05:15;;;;;;;12.00;9.15;;;;;;;16.90;100.00;100354.31;5013604;28;20218;-73
2021/08/19 05:07:43;;;;;;;11.32;9.60;;;;;;;16.91;100.00;100358.69;5014605;28;20647;-73
2021/08/19 05:10:11;;;;;;;10.23;9.10;;;;;;;16.93;100.00;100361.91;5016780;28;20206;-72
2021/08/19 05:12:44;;;;;;;9.75;8.75;;;;;;;16.97;100.00;100365.63;5018296;28;20283;-73
2021/08/19 05:15:10;;;;;;;10.07;9.07;;;;;;;17.11;100.00;100364.38;5013444;28;20230;-72
2021/08/19 05:17:38;;;;;;;12.02;9.65;;;;;;;16.97;100.00;100351.91;5046891;28;20184;-72
2021/08/19 05:20:07;;;;;;;13.25;9.52;;;;;;;17.03;100.00;100353.38;5055876;28;20275;-73
2021/08/19 05:22:32;;;;;;;11.02;9.18;;;;;;;17.14;100.00;100349.16;5049430;28;20290;-73
2021/08/19 05:25:00;;;;;;;11.38;9.38;;;;;;;17.13;100.00;100364.03;5030198;28;20230;-73
2021/08/19 05:27:28;;;;;;;10.23;9.18;;;;;;;17.04;100.00;100364.03;5029983;28;20227;-73
2021/08/19 05:29:54;;;;;;;11.43;9.95;;;;;;;17.00;100.00;100362.25;5003917;28;20188;-73
2021/08/19 05:32:22;;;;;;;10.45;9.15;;;;;;;17.20;100.00;100362.47;5033220;28;20314;-74
2021/08/19 05:34:50;;;;;;;10.77;9.65;;;;;;;17.09;100.00;100365.81;5003467;28;20196;-73
2021/08/19 05:37:16;;;;;;;12.70;9.52;;;;;;;17.11;100.00;100371.78;5049516;28;20258;-73
2021/08/19 05:39:44;;;;;;;10.90;9.38;;;;;;;17.04;100.00;100371.47;5049891;28;20198;-73
2021/08/19 05:42:09;;;;;;;11.55;9.48;;;;;;;17.16;100.00;100377.97;5017296;28;20250;-72
2021/08/19 05:44:37;;;;;;;10.45;9.00;;;;;;;17.25;100.00;100383.44;5054354;28;20187;-74
2021/08/19 05:47:06;;;;;;;9.48;8.52;;;;;;;17.09;100.00;100379.56;5072386;28;20227;-75
2021/08/19 05:49:35;;;;;;;9.80;8.80;;;;;;;17.26;100.00;100380.38;5037268;28;20560;-72
2021/08/19 05:52:06;;;;;;;9.23;8.32;;;;;;;17.34;100.00;100377.66;5020321;28;20235;-74
2021/08/19 05:54:34;;;;;;;9.80;8.43;;;;;;;17.21;100.00;100380.53;5021426;28;20180;-72
2021/08/19 05:57:00;;;;;;;9.90;8.05;;;;;;;17.38;100.00;100389.59;5020436;28;20219;-73
2021/08/19 05:59:26;;;;;;;10.13;8.75;;;;;;;17.44;100.00;100382.00;5020270;28;20560;-73
2021/08/19 06:01:57;;;;;;;10.45;8.75;;;;;;;17.49;100.00;100390.91;5069610;28;20245;-73
2021/08/19 06:04:25;;;;;;;10.77;8.43;;;;;;;17.20;100.00;100386.38;5037884;28;20204;-74
2021/08/19 06:06:51;;;;;;;9.05;8.15;;;;;;;17.25;100.00;100389.78;5039704;28;20234;-73
2021/08/19 06:09:16;;;;;;;10.85;8.45;;;;;;;17.36;100.00;100386.38;5055930;28;20218;-73
2021/08/19 06:11:42;;;;;;;9.65;8.65;;;;;;;17.43;100.00;100386.69;5038145;28;20318;-73
2021/08/19 06:14:08;;;;;;;12.40;8.68;;;;;;;17.74;100.00;100385.34;5021024;28;20242;-76
2021/08/19 06:16:38;;;;;;;9.25;8.27;;;;;;;17.90;100.00;100396.66;5033662;28;20216;-74
2021/08/19 06:19:04;;;;;;;9.40;8.48;;;;;;;17.81;100.00;100395.88;5017536;28;20242;-73
2021/08/19 06:21:31;;;;;;;9.98;8.18;;;;;;;17.80;100.00;100399.75;5020929;28;20219;-74
2021/08/19 06:23:59;;;;;;;10.10;8.23;;;;;;;17.67;100.00;100403.47;5038443;28;20210;-73
2021/08/19 06:26:27;;;;;;;8.63;7.75;;;;;;;17.97;100.00;100407.97;5018402;28;20228;-71
2021/08/19 06:28:53;;;;;;;9.23;8.25;;;;;;;17.88;100.00;100407.97;5049472;28;20184;-72
2021/08/19 06:31:18;;;;;;;9.32;7.78;;;;;;;17.74;100.00;100412.03;5035972;28;20592;-74
2021/08/19 06:33:44;;;;;;;8.90;7.78;;;;;;;17.69;100.00;100412.22;5020034;28;20318;-76
2021/08/19 06:36:09;;;;;;;10.68;7.85;;;;;;;17.72;100.00;100405.25;5049228;28;20262;-73
2021/08/19 06:38:35;;;;;;;8.02;7.25;;;;;;;17.94;100.00;100412.16;5032648;28;20250;-73
2021/08/19 06:41:05;;;;;;;8.88;7.43;;;;;;;18.04;100.00;100413.75;5035728;28;20265;-72
2021/08/19 06:43:30;;;;;;;9.35;7.50;;;;;;;17.87;100.00;100411.06;5020735;28;20218;-74
2021/08/19 06:45:58;;;;;;;10.48;7.35;;;;;;;17.54;100.00;100412.69;5053909;28;20223;-74
2021/08/19 06:48:24;;;;;;;8.48;7.28;;;;;;;17.61;100.00;100407.53;5052839;28;20324;-74
2021/08/19 06:50:54;;;;;;;9.98;7.35;;;;;;;17.72;100.00;100405.25;5016228;28;20216;-72
2021/08/19 06:53:22;;;;;;;9.73;7.70;;;;;;;17.71;100.00;100414.63;5049080;28;20224;-74
2021/08/19 06:55:47;;;;;;;8.27;6.45;;;;;;;18.04;100.00;100413.75;5050975;28;20212;-72
2021/08/19 06:58:13;;;;;;;7.85;6.82;;;;;;;18.01;100.00;100415.25;5052608;28;20285;-74
2021/08/19 07:00:43;;;;;;;8.00;6.70;;;;;;;17.96;100.00;100411.84;5035737;28;20302;-72
2021/08/19 07:03:15;;;;;;;8.18;6.10;;;;;;;17.97;100.00;100407.97;5036629;28;20203;-75
2021/08/19 07:05:47;;;;;;;9.02;6.00;;;;;;;18.10;100.00;100412.50;5019305;28;20223;-73
2021/08/19 07:08:15;;;;;;;7.95;6.50;;;;;;;18.34;100.00;100408.88;5052504;28;20213;-74
2021/08/19 07:10:41;;;;;;;7.55;5.97;;;;;;;18.64;100.00;100399.50;5019189;28;20227;-72
2021/08/19 07:13:09;;;;;;;9.13;6.07;;;;;;;18.63;100.00;100404.22;5032092;28;20220;-72
2021/08/19 07:15:39;;;;;;;7.90;5.88;;;;;;;18.56;100.00;100416.88;5048644;28;20647;-71
2021/08/19 07:18:04;;;;;;;6.97;6.28;;;;;;;18.50;100.00;100407.19;5052479;28;20561;-74
2021/08/19 07:20:30;;;;;;;8.65;6.00;;;;;;;18.32;100.00;100402.88;5035774;28;20223;-74
2021/08/19 07:22:55;;;;;;;6.28;5.60;;;;;;;18.55;100.00;100398.75;5032619;28;20258;-73
2021/08/19 07:25:23;;;;;;;8.35;5.95;;;;;;;18.21;100.00;100407.13;5015314;28;20677;-73
2021/08/19 07:27:51;;;;;;;7.70;5.90;;;;;;;18.47;100.00;100412.53;5020246;28;20175;-74
2021/08/19 07:30:19;;;;;;;9.00;6.18;;;;;;;18.44;100.00;100411.25;5018570;28;20210;-74
2021/08/19 07:32:48;;;;;;;7.45;5.93;;;;;;;18.46;100.00;100417.25;5031627;28;20258;-74
2021/08/19 07:35:13;;;;;;;7.38;5.68;;;;;;;18.45;100.00;100417.56;5015388;28;20180;-75
2021/08/19 07:37:50;;;;;;;8.77;6.18;;;;;;;18.58;100.00;100406.34;5011146;28;20198;-74
2021/08/19 07:40:19;;;;;;;6.30;5.38;;;;;;;18.72;100.00;100406.94;5027084;28;20678;-74
2021/08/19 07:42:45;;;;;;;9.18;6.57;;;;;;;18.86;100.00;100405.53;5026326;28;20286;-72
2021/08/19 07:45:12;;;;;;;7.25;6.20;;;;;;;18.71;100.00;100413.56;5051248;28;20204;-72
2021/08/19 07:47:37;;;;;;;8.02;6.00;;;;;;;18.95;100.00;100414.56;5018282;28;20192;-76
2021/08/19 07:50:05;;;;;;;8.45;6.43;;;;;;;18.86;100.00;100418.50;5033879;28;20176;-75
2021/08/19 07:52:34;;;;;;;7.28;5.57;;;;;;;19.09;100.00;100418.72;5053428;28;20700;-73
2021/08/19 07:55:02;;;;;;;8.15;6.60;;;;;;;18.78;100.00;100430.38;5020482;28;20238;-74
2021/08/19 07:57:30;;;;;;;9.10;6.47;;;;;;;18.78;100.00;100441.38;5068157;28;20728;-76
2021/08/19 07:59:55;;;;;;;8.18;7.38;;;;;;;19.01;100.00;100436.13;5018566;28;20256;-72
2021/08/19 08:02:24;;;;;;;7.68;6.72;;;;;;;18.68;100.00;100436.22;5015087;28;20796;-73
2021/08/19 08:04:49;;;;;;;9.80;6.93;;;;;;;18.95;100.00;100431.91;5015184;28;20184;-72
2021/08/19 08:07:19;;;;;;;9.15;6.45;;;;;;;19.04;100.00;100435.44;5001963;28;20587;-72
2021/08/19 08:09:52;;;;;;;8.27;7.47;;;;;;;19.08;100.00;100441.91;5035689;28;20179;-73
2021/08/19 08:12:18;;;;;;;7.47;6.60;;;;;;;18.81;100.00;100451.72;5034134;28;20232;-73
2021/08/19 08:14:43;;;;;;;7.95;6.88;;;;;;;18.54;100.00;100457.66;5053231;28;20203;-73
2021/08/19 08:17:11;;;;;;;7.13;6.53;;;;;;;18.73;100.00;100450.63;5034674;28;20238;-73
2021/08/19 08:19:38;;;;;;;6.68;6.07;;;;;;;18.96;100.00;100455.53;5034537;28;20172;-74
2021/08/19 08:22:06;;;;;;;8.82;6.38;;;;;;;19.04;100.00;100451.94;5052022;28;20726;-73
2021/08/19 08:24:32;;;;;;;8.18;6.13;;;;;;;19.41;100.00;100445.56;5067339;28;20259;-75
2021/08/19 08:26:57;;;;;;;8.85;6.53;;;;;;;19.33;100.00;100454.69;5034015;28;20222;-74
2021/08/19 08:29:25;;;;;;;7.05;6.10;;;;;;;19.29;100.00;100453.75;5017285;28;20191;-77
2021/08/19 08:31:53;;;;;;;6.15;5.55;;;;;;;19.43;100.00;100454.28;5034226;28;20231;-76
2021/08/19 08:34:19;;;;;;;8.70;5.82;;;;;;;19.71;100.00;100457.00;5014214;28;20709;-73
2021/08/19 08:36:49;;;;;;;6.38;5.47;;;;;;;19.61;100.00;100455.78;5014094;28;20529;-73
2021/08/19 08:39:16;;;;;;;7.03;5.85;;;;;;;19.71;100.00;100456.19;5030712;28;20192;-73
2021/08/19 08:41:44;;;;;;;24.23;9.18;;;;;;;19.18;100.00;100460.00;5018740;28;20731;-72
2021/08/19 08:44:09;;;;;;;7.35;6.05;;;;;;;19.40;100.00;100464.03;5031891;28;20200;-75
2021/08/19 08:46:35;;;;;;;6.50;5.85;;;;;;;19.32;100.00;100461.34;5037084;28;20224;-73
2021/08/19 08:49:00;;;;;;;6.60;5.85;;;;;;;19.50;100.00;100460.88;5022909;28;20180;-73
2021/08/19 08:51:29;;;;;;;6.75;5.57;;;;;;;19.45;100.00;100463.03;5038571;28;20782;-74
2021/08/19 08:53:59;;;;;;;6.00;5.40;;;;;;;19.75;100.00;100466.19;5022313;28;20208;-73
2021/08/19 08:56:27;;;;;;;5.88;5.38;;;;;;;19.88;100.00;100467.09;5036858;28;20280;-74
2021/08/19 08:58:53;;;;;;;5.90;5.40;;;;;;;19.63;100.00;100470.03;5039518;28;20270;-74
2021/08/19 09:01:21;;;;;;;6.03;5.43;;;;;;;19.60;100.00;100473.47;5035276;28;20639;-73
2021/08/19 09:03:49;;;;;;;6.20;5.20;;;;;;;19.70;100.00;100460.88;5019244;28;20218;-74
2021/08/19 09:06:19;;;;;;;6.25;5.65;;;;;;;20.01;100.00;100471.53;5033753;28;20630;-72
2021/08/19 09:08:53;;;;;;;6.20;5.50;;;;;;;20.13;100.00;100469.63;5050656;28;20187;-73
2021/08/19 09:11:19;;;;;;;5.82;5.25;;;;;;;20.05;100.00;100461.44;5033250;28;20256;-73
2021/08/19 09:13:47;;;;;;;6.47;5.47;;;;;;;19.55;100.00;100465.41;5030560;28;20212;-73
2021/08/19 09:16:16;;;;;;;6.70;5.38;;;;;;;19.67;100.00;100463.53;4997593;28;20234;-73
2021/08/19 09:18:47;;;;;;;5.65;5.00;;;;;;;20.06;100.00;100469.38;5021052;28;20179;-75
2021/08/19 09:21:22;;;;;;;5.90;5.30;;;;;;;20.40;100.00;100471.78;5018238;28;20215;-74
2021/08/19 09:24:12;;;;;;;5.40;4.85;;;;;;;19.97;100.00;100468.63;5017826;28;20210;-72
2021/08/19 09:26:40;;;;;;;5.20;4.70;;;;;;;20.49;100.00;100474.13;5025783;28;20314;-72
2021/08/19 09:29:13;;;;;;;6.43;4.82;;;;;;;20.16;100.00;100468.94;5017848;28;20692;-75
2021/08/19 09:31:39;;;;;;;6.15;4.80;;;;;;;20.52;100.00;100475.38;5050246;28;20316;-74
2021/08/19 09:34:05;;;;;;;5.15;4.65;;;;;;;20.86;100.00;100467.53;5034854;28;20195;-73
2021/08/19 09:36:31;;;;;;;5.68;4.60;;;;;;;20.35;100.00;100472.00;5025056;28;20273;-74
2021/08/19 09:38:57;;;;;;;5.75;4.57;;;;;;;20.72;100.00;100464.28;5044366;28;20188;-75
2021/08/19 09:41:24;;;;;;;4.25;3.85;;;;;;;20.78;100.00;100457.38;5060734;28;20211;-74
2021/08/19 09:43:53;;;;;;;5.25;3.90;;;;;;;20.73;100.00;100465.91;5051716;28;20750;-72
2021/08/19 09:46:31;;;;;;;5.15;4.40;;;;;;;21.02;100.00;100466.47;5034659;28;20219;-73
2021/08/19 09:49:00;;;;;;;4.35;3.95;;;;;;;21.01;100.00;100464.09;5037087;28;20199;-74
2021/08/19 09:51:28;;;;;;;4.82;4.32;;;;;;;21.21;100.00;100457.59;5018641;28;20300;-73
2021/08/19 09:53:57;;;;;;;4.78;4.10;;;;;;;20.69;100.00;100462.19;5050719;28;20204;-74
2021/08/19 09:56:29;;;;;;;4.95;4.40;;;;;;;21.15;100.00;100462.56;5016889;28;20253;-75
2021/08/19 09:59:17;;;;;;;4.93;4.13;;;;;;;21.05;99.82;100470.53;5016688;28;20184;-74
2021/08/19 10:01:51;;;;;;;5.93;4.30;;;;;;;20.98;100.00;100459.25;5032907;28;20215;-75
2021/08/19 10:04:19;;;;;;;6.43;4.40;;;;;;;21.16;100.00;100453.13;5013343;28;20258;-75
2021/08/19 10:06:45;;;;;;;5.30;4.30;;;;;;;20.95;99.96;100451.63;5045780;28;20257;-75
2021/08/19 10:09:13;;;;;;;5.15;3.90;;;;;;;21.00;100.00;100456.94;5016427;28;20263;-73
2021/08/19 10:11:49;;;;;;;4.53;4.10;;;;;;;21.22;100.00;100449.78;5032861;28;20226;-74
2021/08/19 10:14:18;;;;;;;6.00;4.10;;;;;;;21.22;100.00;100453.72;5013339;28;20204;-74
2021/08/19 10:16:44;;;;;;;4.72;4.28;;;;;;;21.47;100.00;100451.41;5012957;28;20232;-74
2021/08/19 10:19:14;;;;;;;4.78;3.88;;;;;;;21.48;100.00;100450.25;5015221;28;20184;-74
2021/08/19 10:21:41;;;;;;;4.55;3.58;;;;;;;21.77;97.33;100453.50;5016493;28;20227;-74
2021/08/19 10:24:07;;;;;;;4.53;3.00;;;;;;;21.78;94.64;100457.09;5016230;28;20693;-74
2021/08/19 10:26:32;;;;;;;5.18;3.83;;;;;;;21.80;96.58;100455.56;5015786;28;20230;-76
2021/08/19 10:29:02;;;;;;;4.75;3.50;;;;;;;21.93;95.16;100448.84;5033057;28;20190;-74
2021/08/19 10:31:46;;;;;;;5.43;3.80;;;;;;;21.88;94.93;100453.81;5016178;28;20243;-73
2021/08/19 10:34:18;;;;;;;4.32;3.58;;;;;;;22.12;95.47;100447.03;5033809;28;20283;-74
2021/08/19 10:36:49;;;;;;;4.40;4.00;;;;;;;22.23;94.86;100453.69;5020598;28;20280;-74
2021/08/19 10:39:18;;;;;;;3.85;3.25;;;;;;;22.08;95.74;100439.78;5035554;28;20206;-73
2021/08/19 10:41:43;;;;;;;5.10;3.15;;;;;;;22.25;94.67;100443.09;5035735;28;20215;-74
2021/08/19 10:44:09;;;;;;;3.42;3.13;;;;;;;22.44;92.21;100443.19;5035869;28;20590;-74
2021/08/19 10:46:42;;;;;;;5.18;3.33;;;;;;;22.48;93.27;100444.09;5032317;28;20215;-76
2021/08/19 10:49:40;;;;;;;4.85;3.40;;;;;;;22.28;89.27;100445.13;5032152;28;20242;-72
2021/08/19 10:52:08;;;;;;;4.38;3.20;;;;;;;22.10;90.95;100452.09;5033321;28;20228;-77
2021/08/19 10:54:39;;;;;;;3.47;2.97;;;;;;;22.10;92.50;100452.09;5033498;28;20192;-74
2021/08/19 10:57:30;;;;;;;6.28;3.60;;;;;;;21.76;93.65;100448.34;5035784;28;20302;-75
2021/08/19 11:00:04;;;;;;;4.22;2.97;;;;;;;22.27;94.70;100440.75;5043707;28;20287;-74
2021/08/19 11:02:49;;;;;;;3.65;3.10;;;;;;;21.85;90.40;100451.75;5035496;28;20778;-74
2021/08/19 11:05:37;;;;;;;4.72;3.38;;;;;;;21.97;92.87;100451.72;5015275;28;20589;-75
2021/08/19 11:08:03;;;;;;;4.28;3.88;;;;;;;21.37;97.25;100448.25;5015731;28;20207;-76
2021/08/19 11:10:36;;;;;;;3.85;3.47;;;;;;;21.31;100.00;100453.22;5035176;28;20224;-72
2021/08/19 11:13:08;;;;;;;4.95;4.35;;;;;;;21.21;100.00;100452.09;5054734;28;20203;-76
2021/08/19 11:15:49;;;;;;;4.50;4.10;;;;;;;21.11;100.00;100450.59;5015168;28;20220;-75
2021/08/19 11:18:27;;;;;;;4.88;4.47;;;;;;;20.93;100.00;100457.53;5015788;28;20188;-75
2021/08/19 11:20:55;;;;;;;5.00;4.60;;;;;;;21.11;100.00;100452.56;5024375;28;20642;-74
2021/08/19 11:23:35;;;;;;;4.93;4.35;;;;;;;20.98;100.00;100453.72;5070491;28;20728;-74